createdAt,value
2022-10-28T00:01:31.200Z,9.93
2022-10-28T00:04:01.918Z,9.90
2022-10-28T00:06:34.881Z,9.87
2022-10-28T00:09:06.828Z,9.86
2022-10-28T00:11:37.991Z,9.84
2022-10-28T00:14:07.313Z,9.83
2022-10-28T00:16:37.699Z,9.82
2022-10-28T00:19:10.609Z,9.83
2022-10-28T00:21:41.811Z,9.83
2022-10-28T00:24:13.129Z,9.83
2022-10-28T00:26:43.344Z,9.82
2022-10-28T00:29:15.803Z,9.80
2022-10-28T00:31:45.223Z,9.78
2022-10-28T00:34:19.614Z,9.77
2022-10-28T00:36:48.769Z,9.75
2022-10-28T00:39:24.085Z,9.74
2022-10-28T00:41:54.657Z,9.73
2022-10-28T00:45:02.205Z,9.72
2022-10-28T00:47:58.140Z,9.72
2022-10-28T00:50:53.680Z,9.72
2022-10-28T00:53:27.582Z,9.70
2022-10-28T00:55:57.065Z,9.69
2022-10-28T00:58:26.765Z,9.67
2022-10-28T01:00:55.597Z,9.67
2022-10-28T01:03:24.990Z,9.66
2022-10-28T01:05:53.565Z,9.65
2022-10-28T01:08:21.809Z,9.64
2022-10-28T01:11:28.128Z,9.63
2022-10-28T01:14:12.398Z,9.62
2022-10-28T01:16:53.387Z,9.62
2022-10-28T01:20:01.725Z,9.62
2022-10-28T01:22:42.452Z,9.60
2022-10-28T01:25:22.503Z,9.59
2022-10-28T01:28:37.954Z,9.56
2022-10-28T01:31:30.875Z,9.54
2022-10-28T01:34:20.246Z,9.52
2022-10-28T01:37:47.036Z,9.50
2022-10-28T01:40:37.062Z,9.49
2022-10-28T01:43:24.062Z,9.49
2022-10-28T01:46:17.547Z,9.49
2022-10-28T01:49:01.591Z,9.48
2022-10-28T01:51:46.601Z,9.48
2022-10-28T01:54:23.906Z,9.48
2022-10-28T01:56:55.798Z,9.47
2022-10-28T01:59:28.247Z,9.47
2022-10-28T02:01:57.065Z,9.47
2022-10-28T02:04:25.402Z,9.47
2022-10-28T02:06:57.006Z,9.48
2022-10-28T02:09:48.500Z,9.48
2022-10-28T02:12:34.405Z,9.49
2022-10-28T02:15:37.505Z,9.49
2022-10-28T02:18:27.721Z,9.49
2022-10-28T02:21:03.422Z,9.49
2022-10-28T02:23:51.098Z,9.51
2022-10-28T02:26:27.188Z,9.53
2022-10-28T02:29:45.054Z,9.57
2022-10-28T02:32:20.801Z,9.61
2022-10-28T02:34:53.424Z,9.64
2022-10-28T02:37:29.023Z,9.67
2022-10-28T02:40:02.478Z,9.70
2022-10-28T02:42:37.324Z,9.71
2022-10-28T02:45:56.999Z,9.71
2022-10-28T02:48:47.130Z,9.72
2022-10-28T02:51:20.467Z,9.72
2022-10-28T02:54:19.150Z,9.72
2022-10-28T02:57:07.491Z,9.70
2022-10-28T02:59:35.884Z,9.67
2022-10-28T03:02:04.193Z,9.66
2022-10-28T03:04:32.525Z,9.65
2022-10-28T03:07:00.893Z,9.65
2022-10-28T03:09:29.798Z,9.64
2022-10-28T03:11:58.052Z,9.63
2022-10-28T03:14:26.491Z,9.62
2022-10-28T03:16:54.722Z,9.62
2022-10-28T03:19:23.032Z,9.62
2022-10-28T03:21:51.334Z,9.63
2022-10-28T03:24:19.591Z,9.64
2022-10-28T03:26:47.831Z,9.65
2022-10-28T03:29:16.037Z,9.66
2022-10-28T03:31:44.242Z,9.67
2022-10-28T03:34:12.453Z,9.67
2022-10-28T03:36:40.786Z,9.68
2022-10-28T03:39:09.107Z,9.68
2022-10-28T03:41:37.296Z,9.66
2022-10-28T03:44:05.919Z,9.66
2022-10-28T03:46:36.011Z,9.66
2022-10-28T03:49:04.627Z,9.65
2022-10-28T03:51:32.867Z,9.65
2022-10-28T03:54:01.341Z,9.64
2022-10-28T03:56:29.581Z,9.65
2022-10-28T03:58:57.865Z,9.64
2022-10-28T04:01:26.232Z,9.65
2022-10-28T04:03:54.627Z,9.65
2022-10-28T04:06:23.129Z,9.65
2022-10-28T04:08:51.323Z,9.65
2022-10-28T04:11:19.552Z,9.65
2022-10-28T04:13:47.803Z,9.65
2022-10-28T04:16:16.024Z,9.64
2022-10-28T04:18:44.246Z,9.64
2022-10-28T04:21:12.576Z,9.64
2022-10-28T04:23:40.825Z,9.63
2022-10-28T04:26:09.245Z,9.62
2022-10-28T04:28:37.443Z,9.61
2022-10-28T04:31:05.697Z,9.61
2022-10-28T04:33:34.333Z,9.59
2022-10-28T04:36:02.576Z,9.57
2022-10-28T04:38:30.802Z,9.56
2022-10-28T04:40:59.203Z,9.55
2022-10-28T04:43:27.412Z,9.54
2022-10-28T04:45:55.707Z,9.52
2022-10-28T04:48:24.215Z,9.49
2022-10-28T04:50:53.437Z,9.47
2022-10-28T04:53:21.666Z,9.45
2022-10-28T04:55:49.948Z,9.43
2022-10-28T04:58:18.198Z,9.40
2022-10-28T05:00:46.419Z,9.40
2022-10-28T05:03:14.721Z,9.38
2022-10-28T05:05:43.028Z,9.37
2022-10-28T05:08:11.478Z,9.35
2022-10-28T05:10:39.782Z,9.32
2022-10-28T05:13:07.954Z,9.29
2022-10-28T05:15:36.715Z,9.28
2022-10-28T05:18:04.959Z,9.26
2022-10-28T05:20:33.259Z,9.26
2022-10-28T05:23:01.475Z,9.25
2022-10-28T05:25:29.827Z,9.24
2022-10-28T05:28:00.119Z,9.24
2022-10-28T05:30:29.257Z,9.24
2022-10-28T05:33:04.474Z,9.23
2022-10-28T05:35:32.835Z,9.21
2022-10-28T05:38:01.147Z,9.20
2022-10-28T05:40:29.870Z,9.19
2022-10-28T05:42:59.130Z,9.18
2022-10-28T05:47:56.310Z,9.17
2022-10-28T05:50:24.614Z,9.16
2022-10-28T05:52:56.243Z,9.18
2022-10-28T05:55:28.449Z,9.20
2022-10-28T05:57:57.740Z,9.23
2022-10-28T06:00:27.201Z,9.26
2022-10-28T06:03:12.006Z,9.28
2022-10-28T06:05:44.103Z,9.31
2022-10-28T06:08:13.723Z,9.34
2022-10-28T06:10:54.134Z,9.36
2022-10-28T06:13:23.116Z,9.42
2022-10-28T06:15:53.525Z,9.46
2022-10-28T06:18:22.809Z,9.51
2022-10-28T06:20:56.773Z,9.57
2022-10-28T06:23:27.219Z,9.63
2022-10-28T06:25:58.406Z,9.69
2022-10-28T06:28:27.459Z,9.76
2022-10-28T06:31:07.834Z,9.82
2022-10-28T06:33:36.135Z,9.89
2022-10-28T06:36:04.963Z,9.95
2022-10-28T06:38:33.364Z,10.03
2022-10-28T06:41:01.743Z,10.11
2022-10-28T06:43:30.383Z,10.20
2022-10-28T06:46:03.959Z,10.31
2022-10-28T06:48:33.774Z,10.41
2022-10-28T06:51:02.145Z,10.52
2022-10-28T06:53:30.363Z,10.63
2022-10-28T06:55:58.977Z,10.74
2022-10-28T06:58:27.569Z,10.86
2022-10-28T07:01:04.594Z,10.98
2022-10-28T07:03:48.188Z,11.13
2022-10-28T07:06:17.443Z,11.27
2022-10-28T07:08:45.726Z,11.44
2022-10-28T07:11:14.031Z,11.60
2022-10-28T07:13:44.259Z,11.77
2022-10-28T07:16:14.801Z,11.94
2022-10-28T07:18:43.816Z,12.11
2022-10-28T07:21:12.372Z,12.28
2022-10-28T07:23:40.612Z,12.43
2022-10-28T07:26:08.941Z,12.59
2022-10-28T07:28:37.179Z,12.73
2022-10-28T07:31:05.466Z,12.87
2022-10-28T07:33:33.949Z,13.00
2022-10-28T07:36:07.295Z,13.11
2022-10-28T07:38:36.233Z,13.23
2022-10-28T07:41:08.253Z,13.33
2022-10-28T07:43:38.467Z,13.46
2022-10-28T07:46:07.547Z,13.58
2022-10-28T07:48:37.554Z,13.72
2022-10-28T07:51:07.904Z,13.86
2022-10-28T07:53:37.195Z,13.99
2022-10-28T07:56:10.231Z,14.15
2022-10-28T07:58:38.660Z,14.30
2022-10-28T08:01:09.871Z,14.45
2022-10-28T08:03:39.206Z,14.61
2022-10-28T08:06:17.659Z,14.77
2022-10-28T08:08:54.314Z,14.95
2022-10-28T08:11:23.959Z,15.14
2022-10-28T08:13:53.539Z,15.28
2022-10-28T08:16:21.821Z,15.41
2022-10-28T08:18:50.155Z,15.53
2022-10-28T08:21:18.737Z,15.67
2022-10-28T08:23:47.210Z,15.75
2022-10-28T08:26:17.032Z,15.82
2022-10-28T08:28:45.258Z,15.91
2022-10-28T08:31:13.690Z,16.01
2022-10-28T08:33:45.313Z,16.13
2022-10-28T08:36:16.773Z,16.26
2022-10-28T08:38:46.944Z,16.38
2022-10-28T08:41:49.251Z,16.53
2022-10-28T08:44:34.327Z,16.89
2022-10-28T08:47:17.763Z,17.22
2022-10-28T08:49:50.206Z,17.52
2022-10-28T08:53:13.079Z,17.83
2022-10-28T08:55:46.965Z,18.24
2022-10-28T08:58:28.337Z,18.48
2022-10-28T09:00:59.985Z,18.80
2022-10-28T09:03:34.423Z,19.05
2022-10-28T09:06:08.007Z,19.33
2022-10-28T09:08:47.974Z,19.66
2022-10-28T09:11:43.174Z,20.04
2022-10-28T09:14:46.351Z,20.46
2022-10-28T09:17:24.525Z,20.85
2022-10-28T09:20:17.718Z,21.25
2022-10-28T09:23:05.658Z,21.61
2022-10-28T09:26:31.627Z,21.99
2022-10-28T09:29:44.520Z,22.31
2022-10-28T09:32:58.257Z,22.50
2022-10-28T09:35:32.005Z,22.61
2022-10-28T09:38:27.513Z,22.68
2022-10-28T09:41:23.175Z,22.88
2022-10-28T09:44:21.297Z,23.03
2022-10-28T09:46:58.160Z,23.26
2022-10-28T09:49:34.531Z,23.53
2022-10-28T09:52:27.100Z,23.78
2022-10-28T09:54:58.252Z,24.07
2022-10-28T09:57:31.749Z,24.34
2022-10-28T10:00:00.592Z,24.60
2022-10-28T10:02:33.859Z,24.76
2022-10-28T10:05:19.633Z,24.89
2022-10-28T10:08:00.635Z,24.93
2022-10-28T10:10:43.764Z,25.08
2022-10-28T10:13:14.423Z,25.27
2022-10-28T10:15:52.581Z,25.45
2022-10-28T10:18:33.102Z,25.73
2022-10-28T10:21:01.657Z,26.00
2022-10-28T10:23:35.484Z,26.29
2022-10-28T10:26:16.920Z,26.56
2022-10-28T10:28:51.137Z,26.78
2022-10-28T10:31:23.233Z,26.98
2022-10-28T10:33:57.751Z,27.19
2022-10-28T10:36:29.113Z,27.36
2022-10-28T10:39:26.955Z,27.54
2022-10-28T10:41:55.624Z,27.70
2022-10-28T10:44:43.377Z,27.98
2022-10-28T10:47:13.381Z,28.21
2022-10-28T10:49:41.732Z,28.35
2022-10-28T10:52:22.424Z,28.41
2022-10-28T10:55:23.051Z,28.51
2022-10-28T10:57:51.530Z,28.58
2022-10-28T11:00:23.060Z,28.73
2022-10-28T11:02:54.996Z,28.93
2022-10-28T11:05:55.076Z,29.10
2022-10-28T11:08:40.449Z,29.23
2022-10-28T11:11:14.814Z,29.31
2022-10-28T11:13:46.031Z,29.46
2022-10-28T11:16:18.660Z,29.51
2022-10-28T11:18:51.415Z,29.61
2022-10-28T11:21:47.960Z,29.77
2022-10-28T11:24:40.471Z,29.91
2022-10-28T11:27:27.569Z,30.09
2022-10-28T11:29:59.050Z,30.16
2022-10-28T11:32:54.735Z,30.20
2022-10-28T11:36:19.040Z,30.33
2022-10-28T11:38:59.906Z,30.44
2022-10-28T11:41:46.588Z,30.51
2022-10-28T11:44:47.352Z,30.61
2022-10-28T11:47:30.639Z,30.76
2022-10-28T11:50:29.005Z,30.84
2022-10-28T11:53:51.899Z,30.92
2022-10-28T11:56:36.980Z,30.91
2022-10-28T11:59:54.505Z,31.00
2022-10-28T12:03:01.644Z,31.14
2022-10-28T12:05:42.884Z,31.24
2022-10-28T12:08:44.719Z,31.27
2022-10-28T12:11:24.227Z,31.38
2022-10-28T12:14:05.588Z,31.34
2022-10-28T12:16:50.516Z,31.35
2022-10-28T12:19:46.888Z,31.32
2022-10-28T12:22:27.059Z,31.38
2022-10-28T12:25:19.666Z,31.40
2022-10-28T12:27:50.482Z,31.40
2022-10-28T12:30:31.891Z,31.49
2022-10-28T12:33:25.717Z,31.66
2022-10-28T12:36:35.925Z,31.74
2022-10-28T12:39:20.018Z,31.74
2022-10-28T12:42:18.527Z,31.72
2022-10-28T12:44:50.025Z,31.68
2022-10-28T12:47:27.882Z,31.50
2022-10-28T12:50:08.387Z,31.29
2022-10-28T12:53:01.849Z,31.21
2022-10-28T12:55:47.041Z,31.16
2022-10-28T12:58:44.231Z,31.05
2022-10-28T13:01:16.781Z,30.83
2022-10-28T13:04:03.500Z,30.61
2022-10-28T13:07:35.319Z,30.45
2022-10-28T13:10:15.267Z,30.34
2022-10-28T13:13:10.945Z,30.09
2022-10-28T13:15:53.936Z,29.58
2022-10-28T13:19:05.445Z,28.97
2022-10-28T13:21:54.138Z,28.46
2022-10-28T13:25:23.721Z,28.08
2022-10-28T13:27:58.338Z,27.83
2022-10-28T13:30:28.307Z,27.95
2022-10-28T13:33:21.798Z,28.20
2022-10-28T13:36:16.690Z,28.56
2022-10-28T13:39:06.733Z,28.87
2022-10-28T13:41:43.395Z,29.16
2022-10-28T13:44:20.207Z,29.42
2022-10-28T13:47:28.157Z,29.59
2022-10-28T13:50:08.925Z,29.80
2022-10-28T13:52:46.190Z,30.01
2022-10-28T13:55:44.720Z,30.15
2022-10-28T13:58:25.551Z,30.21
2022-10-28T14:00:54.862Z,30.23
2022-10-28T14:03:26.648Z,30.23
2022-10-28T14:05:58.421Z,30.07
2022-10-28T14:08:37.734Z,29.80
2022-10-28T14:11:23.034Z,29.76
2022-10-28T14:14:16.644Z,29.87
2022-10-28T14:16:44.996Z,29.74
2022-10-28T14:19:30.857Z,29.51
2022-10-28T14:22:08.287Z,29.32
2022-10-28T14:24:40.665Z,29.16
2022-10-28T14:27:09.208Z,28.99
2022-10-28T14:29:55.957Z,28.88
2022-10-28T14:32:33.347Z,28.83
2022-10-28T14:35:10.936Z,28.94
2022-10-28T14:38:58.265Z,29.01
2022-10-28T14:41:34.300Z,29.07
2022-10-28T14:44:47.631Z,28.95
2022-10-28T14:47:46.352Z,28.84
2022-10-28T14:50:21.157Z,28.76
2022-10-28T14:52:52.449Z,28.53
2022-10-28T14:55:39.461Z,28.27
2022-10-28T14:58:19.706Z,28.11
2022-10-28T15:01:17.302Z,27.94
2022-10-28T15:03:57.968Z,27.59
2022-10-28T15:06:46.837Z,27.17
2022-10-28T15:09:30.107Z,26.72
2022-10-28T15:12:07.608Z,26.30
2022-10-28T15:14:55.994Z,25.76
2022-10-28T15:17:36.772Z,25.26
2022-10-28T15:20:24.635Z,24.72
2022-10-28T15:23:22.671Z,24.22
2022-10-28T15:26:14.974Z,23.84
2022-10-28T15:28:43.480Z,23.46
2022-10-28T15:31:11.692Z,23.10
2022-10-28T15:33:42.314Z,22.74
2022-10-28T15:36:22.292Z,22.39
2022-10-28T15:38:58.450Z,22.05
2022-10-28T15:41:29.604Z,21.72
2022-10-28T15:44:36.895Z,21.43
2022-10-28T15:47:37.464Z,21.11
2022-10-28T15:50:31.069Z,20.79
2022-10-28T15:53:11.500Z,20.50
2022-10-28T15:56:02.896Z,20.23
2022-10-28T15:58:39.084Z,19.94
2022-10-28T16:01:39.342Z,19.70
2022-10-28T16:04:25.464Z,19.46
2022-10-28T16:06:58.196Z,19.28
2022-10-28T16:09:37.522Z,19.12
2022-10-28T16:12:26.599Z,18.94
2022-10-28T16:15:02.194Z,18.76
2022-10-28T16:17:36.203Z,18.59
2022-10-28T16:20:29.818Z,18.42
2022-10-28T16:22:58.794Z,18.27
2022-10-28T16:25:26.996Z,18.11
2022-10-28T16:27:56.776Z,17.98
2022-10-28T16:30:25.283Z,17.87
2022-10-28T16:32:53.879Z,17.76
2022-10-28T16:35:24.416Z,17.63
2022-10-28T16:37:55.568Z,17.51
2022-10-28T16:40:50.535Z,17.42
2022-10-28T16:43:31.074Z,17.30
2022-10-28T16:46:00.703Z,17.21
2022-10-28T16:48:46.514Z,17.13
2022-10-28T16:51:32.437Z,17.02
2022-10-28T16:54:01.454Z,16.93
2022-10-28T16:56:29.671Z,16.83
2022-10-28T16:58:57.889Z,16.71
2022-10-28T17:01:43.451Z,16.59
2022-10-28T17:04:12.049Z,16.49
2022-10-28T17:06:40.374Z,16.43
2022-10-28T17:09:08.569Z,16.34
2022-10-28T17:11:36.775Z,16.24
2022-10-28T17:14:05.160Z,16.14
2022-10-28T17:16:36.023Z,16.05
2022-10-28T17:19:07.464Z,15.95
2022-10-28T17:21:35.749Z,15.83
2022-10-28T17:24:22.303Z,15.72
2022-10-28T17:26:52.638Z,15.64
2022-10-28T17:29:39.123Z,15.56
2022-10-28T17:32:08.701Z,15.51
2022-10-28T17:34:36.958Z,15.44
2022-10-28T17:37:05.979Z,15.37
2022-10-28T17:39:34.870Z,15.31
2022-10-28T17:42:20.699Z,15.24
2022-10-28T17:44:48.899Z,15.17
2022-10-28T17:47:17.250Z,15.10
2022-10-28T17:49:45.843Z,15.04
2022-10-28T17:52:14.589Z,14.97
2022-10-28T17:54:42.939Z,14.89
2022-10-28T17:57:11.184Z,14.83
2022-10-28T17:59:39.412Z,14.79
2022-10-28T18:02:12.658Z,14.75
2022-10-28T18:04:58.962Z,14.70
2022-10-28T18:07:45.011Z,14.64
2022-10-28T18:10:13.552Z,14.60
2022-10-28T18:12:41.846Z,14.56
2022-10-28T18:15:11.204Z,14.53
2022-10-28T18:17:39.582Z,14.50
2022-10-28T18:20:09.196Z,14.46
2022-10-28T18:22:37.435Z,14.41
2022-10-28T18:25:06.550Z,14.38
2022-10-28T18:27:52.269Z,14.34
2022-10-28T18:30:20.534Z,14.31
2022-10-28T18:32:48.772Z,14.27
2022-10-28T18:35:34.735Z,14.25
2022-10-28T18:38:20.425Z,14.23
2022-10-28T18:40:48.686Z,14.21
2022-10-28T18:43:17.087Z,14.20
2022-10-28T18:46:02.885Z,14.19
2022-10-28T18:48:49.729Z,14.18
2022-10-28T18:51:18.618Z,14.17
2022-10-28T18:54:04.630Z,14.15
2022-10-28T18:56:34.345Z,14.13
2022-10-28T18:59:04.592Z,14.10
2022-10-28T19:01:33.574Z,14.08
2022-10-28T19:04:04.377Z,14.05
2022-10-28T19:06:33.826Z,14.02
2022-10-28T19:09:05.144Z,14.01
2022-10-28T19:11:34.553Z,13.98
2022-10-28T19:14:06.067Z,13.95
2022-10-28T19:16:51.991Z,13.92
2022-10-28T19:19:21.048Z,13.91
2022-10-28T19:21:51.224Z,13.89
2022-10-28T19:24:37.092Z,13.87
2022-10-28T19:27:05.360Z,13.85
2022-10-28T19:29:33.596Z,13.83
2022-10-28T19:32:02.901Z,13.79
2022-10-28T19:34:32.521Z,13.76
2022-10-28T19:37:19.606Z,13.73
2022-10-28T19:40:06.215Z,13.71
2022-10-28T19:42:34.994Z,13.69
2022-10-28T19:45:05.163Z,13.68
2022-10-28T19:47:33.608Z,13.67
2022-10-28T19:50:01.940Z,13.63
2022-10-28T19:52:30.352Z,13.59
2022-10-28T19:54:58.629Z,13.57
2022-10-28T19:57:26.844Z,13.54
2022-10-28T20:00:13.191Z,13.53
2022-10-28T20:02:41.610Z,13.50
2022-10-28T20:05:09.969Z,13.48
2022-10-28T20:07:38.188Z,13.48
2022-10-28T20:10:07.510Z,13.47
2022-10-28T20:12:35.824Z,13.46
2022-10-28T20:15:05.770Z,13.45
2022-10-28T20:17:34.012Z,13.43
2022-10-28T20:20:02.255Z,13.43
2022-10-28T20:22:30.551Z,13.39
2022-10-28T20:25:16.084Z,13.37
2022-10-28T20:27:44.335Z,13.36
2022-10-28T20:30:13.303Z,13.34
2022-10-28T20:32:41.526Z,13.33
2022-10-28T20:35:10.056Z,13.32
2022-10-28T20:37:38.305Z,13.31
2022-10-28T20:40:09.063Z,13.32
2022-10-28T20:42:55.133Z,13.32
2022-10-28T20:45:23.697Z,13.31
2022-10-28T20:47:52.996Z,13.30
2022-10-28T20:50:21.326Z,13.30
2022-10-28T20:52:49.542Z,13.31
2022-10-28T20:55:17.841Z,13.31
2022-10-28T20:57:46.078Z,13.31
2022-10-28T21:00:14.990Z,13.32
2022-10-28T21:02:43.394Z,13.31
2022-10-28T21:05:11.698Z,13.31
2022-10-28T21:07:39.930Z,13.29
2022-10-28T21:10:09.221Z,13.28
2022-10-28T21:12:55.904Z,13.26
2022-10-28T21:15:24.306Z,13.25
2022-10-28T21:17:52.855Z,13.24
2022-10-28T21:20:21.799Z,13.23
2022-10-28T21:22:50.196Z,13.21
2022-10-28T21:25:18.455Z,13.19
2022-10-28T21:27:46.757Z,13.18
2022-10-28T21:30:15.540Z,13.16
2022-10-28T21:32:43.835Z,13.14
2022-10-28T21:35:12.135Z,13.13
2022-10-28T21:37:40.435Z,13.13
2022-10-28T21:40:09.739Z,13.11
2022-10-28T21:42:37.998Z,13.10
2022-10-28T21:45:07.719Z,13.09
2022-10-28T21:47:35.980Z,13.08
2022-10-28T21:50:04.718Z,13.07
2022-10-28T21:52:32.931Z,13.05
2022-10-28T21:55:09.678Z,13.05
2022-10-28T21:57:48.594Z,13.06
2022-10-28T22:00:17.141Z,13.07
2022-10-28T22:02:45.466Z,13.07
2022-10-28T22:05:13.886Z,13.07
2022-10-28T22:07:42.178Z,13.07
2022-10-28T22:10:10.375Z,13.06
2022-10-28T22:12:56.273Z,13.06
2022-10-28T22:15:24.646Z,13.02
2022-10-28T22:17:53.085Z,12.98
2022-10-28T22:20:22.119Z,12.94
2022-10-28T22:23:07.703Z,12.90
2022-10-28T22:25:36.112Z,12.87
2022-10-28T22:28:04.705Z,12.85
2022-10-28T22:30:32.951Z,12.83
2022-10-28T22:33:01.369Z,12.83
2022-10-28T22:35:56.624Z,12.81
2022-10-28T22:38:25.438Z,12.80
2022-10-28T22:41:37.536Z,12.78
2022-10-28T22:44:23.528Z,12.78
2022-10-28T22:47:09.174Z,12.78
2022-10-28T22:49:54.786Z,12.77
2022-10-28T22:52:40.338Z,12.77
2022-10-28T22:55:09.199Z,12.76
2022-10-28T22:57:37.413Z,12.76
2022-10-28T23:00:06.504Z,12.77
2022-10-28T23:02:34.894Z,12.76
2022-10-28T23:05:03.298Z,12.75
2022-10-28T23:07:31.622Z,12.74
2022-10-28T23:10:00.569Z,12.73
2022-10-28T23:12:28.813Z,12.73
2022-10-28T23:14:58.631Z,12.71
2022-10-28T23:17:26.986Z,12.69
2022-10-28T23:19:55.191Z,12.68
2022-10-28T23:22:23.435Z,12.66
2022-10-28T23:24:51.616Z,12.63
2022-10-28T23:27:19.938Z,12.60
2022-10-28T23:29:48.212Z,12.57
2022-10-28T23:32:16.396Z,12.55
2022-10-28T23:34:44.646Z,12.53
2022-10-28T23:37:12.979Z,12.51
2022-10-28T23:39:41.208Z,12.48
2022-10-28T23:42:09.469Z,12.45
2022-10-28T23:44:37.687Z,12.42
2022-10-28T23:47:06.032Z,12.38
2022-10-28T23:49:34.360Z,12.34
2022-10-28T23:52:02.863Z,12.31
2022-10-28T23:54:31.244Z,12.29
2022-10-28T23:57:16.992Z,12.23
2022-10-28T23:59:45.181Z,12.19
